Time;durP1;ratioP1;P1;durP2;ratioP2;P2;SDS_P1;SDS_P2;PMS_P1;PMS_P2;Temp;Humidity;BMP_temperature;BMP_pressure;BME280_temperature;BME280_humidity;BME280_pressure;Samples;Min_cycle;Max_cycle;Signal;HPM_P1;HPM_P2
2023/01/31 00:01:15;;;;;;;;;66.67;54.67;;;;;;;;5105058;27;8798;-78
2023/01/31 00:03:43;;;;;;;;;56.67;45.33;;;;;;;;5103103;27;8844;-79
2023/01/31 00:06:18;;;;;;;;;39.33;35.00;;;;;;;;5099148;27;8918;-80
2023/01/31 00:08:46;;;;;;;;;62.00;52.33;;;;;;;;5114104;27;8838;-80
2023/01/31 00:11:15;;;;;;;;;64.67;52.00;;;;;;;;5100496;27;8902;-78
2023/01/31 00:13:45;;;;;;;;;49.00;41.33;;;;;;;;5100320;27;9606;-79
2023/01/31 00:16:13;;;;;;;;;66.33;54.33;;;;;;;;5103713;27;8856;-80
2023/01/31 00:18:41;;;;;;;;;67.67;50.67;;;;;;;;5086183;27;8891;-79
2023/01/31 00:21:11;;;;;;;;;63.33;49.33;;;;;;;;5103432;27;8820;-78
2023/01/31 00:23:39;;;;;;;;;67.67;54.33;;;;;;;;5105366;27;8826;-78
2023/01/31 00:26:11;;;;;;;;;59.00;48.67;;;;;;;;5102760;27;8832;-79
2023/01/31 00:28:40;;;;;;;;;60.67;48.33;;;;;;;;5102896;27;8865;-78
2023/01/31 00:31:09;;;;;;;;;65.00;50.33;;;;;;;;5092181;28;9658;-78
2023/01/31 00:33:38;;;;;;;;;61.33;49.00;;;;;;;;5084478;28;8865;-78
2023/01/31 00:36:07;;;;;;;;;68.67;53.67;;;;;;;;5082207;28;8850;-79
2023/01/31 00:38:34;;;;;;;;;70.33;55.67;;;;;;;;5080723;28;8839;-79
2023/01/31 00:41:02;;;;;;;;;60.67;51.67;;;;;;;;5062450;28;8888;-79
2023/01/31 00:43:30;;;;;;;;;69.33;56.00;;;;;;;;5082501;28;8904;-79
2023/01/31 00:45:58;;;;;;;;;56.00;48.00;;;;;;;;5084276;28;9012;-78
2023/01/31 00:48:27;;;;;;;;;57.33;48.00;;;;;;;;5079244;28;8901;-78
2023/01/31 00:50:55;;;;;;;;;50.33;45.00;;;;;;;;5088384;28;8864;-79
2023/01/31 00:53:24;;;;;;;;;52.67;44.00;;;;;;;;5079945;28;8844;-78
2023/01/31 00:55:52;;;;;;;;;41.00;38.67;;;;;;;;5070205;28;8842;-79
2023/01/31 00:58:20;;;;;;;;;56.00;45.67;;;;;;;;5065318;28;8842;-79
2023/01/31 01:00:48;;;;;;;;;51.33;44.67;;;;;;;;5089447;27;8849;-79
2023/01/31 01:03:17;;;;;;;;;47.00;43.00;;;;;;;;5087544;27;8832;-79
2023/01/31 01:05:46;;;;;;;;;55.00;45.33;;;;;;;;5072344;27;8842;-78
2023/01/31 01:08:13;;;;;;;;;44.00;40.33;;;;;;;;5108731;27;8830;-78
2023/01/31 01:10:41;;;;;;;;;41.67;37.33;;;;;;;;5085247;27;8866;-79
2023/01/31 01:13:09;;;;;;;;;52.33;38.00;;;;;;;;5085150;28;8841;-78
2023/01/31 01:15:38;;;;;;;;;52.00;39.00;;;;;;;;5066260;28;8857;-79
2023/01/31 01:18:07;;;;;;;;;40.67;35.00;;;;;;;;5082994;28;8928;-80
2023/01/31 01:20:35;;;;;;;;;48.00;44.00;;;;;;;;5060248;28;8855;-79
2023/01/31 01:23:05;;;;;;;;;43.33;43.00;;;;;;;;5063016;28;8863;-79
2023/01/31 01:25:36;;;;;;;;;53.00;43.33;;;;;;;;5077423;28;8893;-79
2023/01/31 01:28:04;;;;;;;;;41.00;41.00;;;;;;;;5059464;28;8881;-79
2023/01/31 01:30:32;;;;;;;;;47.33;43.33;;;;;;;;5043287;28;9649;-79
2023/01/31 01:32:59;;;;;;;;;55.33;47.00;;;;;;;;5056993;28;8897;-78
2023/01/31 01:35:27;;;;;;;;;57.00;45.67;;;;;;;;5078110;28;9674;-78
2023/01/31 01:37:54;;;;;;;;;43.00;41.67;;;;;;;;5057739;28;9705;-78
2023/01/31 01:40:23;;;;;;;;;43.00;35.67;;;;;;;;5076755;28;8820;-80
2023/01/31 01:42:51;;;;;;;;;40.00;34.67;;;;;;;;5059082;28;8858;-80
2023/01/31 01:45:18;;;;;;;;;33.67;31.33;;;;;;;;5058110;28;8883;-79
2023/01/31 01:47:49;;;;;;;;;39.67;34.33;;;;;;;;5080854;28;8852;-79
2023/01/31 01:50:22;;;;;;;;;44.00;32.67;;;;;;;;5080218;28;8863;-78
2023/01/31 01:52:52;;;;;;;;;37.67;32.67;;;;;;;;5062622;28;8958;-78
2023/01/31 01:55:25;;;;;;;;;40.00;36.00;;;;;;;;5077705;28;8857;-79
2023/01/31 01:57:57;;;;;;;;;31.00;29.00;;;;;;;;5076314;28;8851;-79
2023/01/31 02:00:26;;;;;;;;;30.33;27.67;;;;;;;;5080718;28;8850;-78
2023/01/31 02:02:56;;;;;;;;;23.33;23.33;;;;;;;;5081746;28;8847;-78
2023/01/31 02:05:31;;;;;;;;;28.00;24.67;;;;;;;;5078449;28;8819;-79
2023/01/31 02:08:00;;;;;;;;;25.00;20.33;;;;;;;;5062379;28;8824;-79
2023/01/31 02:10:33;;;;;;;;;34.33;30.00;;;;;;;;5078603;28;8869;-79
2023/01/31 02:13:00;;;;;;;;;39.00;31.67;;;;;;;;5081528;28;8850;-78
2023/01/31 02:15:28;;;;;;;;;30.33;30.33;;;;;;;;5045332;28;8854;-79
2023/01/31 02:17:55;;;;;;;;;30.33;28.00;;;;;;;;5063403;28;8867;-79
2023/01/31 02:20:57;;;;;;;;;39.00;32.33;;;;;;;;5077587;28;9648;-79
2023/01/31 02:23:49;;;;;;;;;39.00;28.67;;;;;;;;5035230;28;8842;-79
2023/01/31 02:26:46;;;;;;;;;35.67;30.33;;;;;;;;5064682;28;8877;-78
2023/01/31 02:29:27;;;;;;;;;32.33;25.33;;;;;;;;5083811;28;8826;-79
2023/01/31 02:32:19;;;;;;;;;34.33;32.67;;;;;;;;5083645;28;8835;-78
2023/01/31 02:34:53;;;;;;;;;37.00;35.67;;;;;;;;5066720;28;8814;-80
2023/01/31 02:37:29;;;;;;;;;35.00;34.00;;;;;;;;5082304;28;8870;-78
2023/01/31 02:40:04;;;;;;;;;42.00;39.00;;;;;;;;5063885;28;8869;-79
2023/01/31 02:42:38;;;;;;;;;38.33;35.67;;;;;;;;5063454;28;8838;-79
2023/01/31 02:45:09;;;;;;;;;36.33;33.00;;;;;;;;5082070;28;8901;-79
2023/01/31 02:47:49;;;;;;;;;45.67;40.67;;;;;;;;5085959;28;8828;-80
2023/01/31 02:50:24;;;;;;;;;34.33;33.33;;;;;;;;5082305;28;8842;-79
2023/01/31 02:52:56;;;;;;;;;34.33;34.33;;;;;;;;5065627;28;8888;-78
2023/01/31 02:58:14;;;;;;;;;34.33;33.00;;;;;;;;5084603;28;9897;-78
2023/01/31 03:00:45;;;;;;;;;40.33;35.00;;;;;;;;5061428;28;8821;-79
2023/01/31 03:03:20;;;;;;;;;33.33;31.67;;;;;;;;5047376;28;8833;-79
2023/01/31 03:06:11;;;;;;;;;43.33;37.67;;;;;;;;5060496;28;8860;-80
2023/01/31 03:08:40;;;;;;;;;37.33;33.00;;;;;;;;5044656;28;8878;-79
2023/01/31 03:11:09;;;;;;;;;38.33;35.00;;;;;;;;5081708;28;8850;-79
2023/01/31 03:13:48;;;;;;;;;44.67;39.00;;;;;;;;5058943;28;8874;-79
2023/01/31 03:19:14;;;;;;;;;10.33;10.33;;;;;;;;5081180;28;8858;-79
2023/01/31 03:21:46;;;;;;;;;43.00;40.33;;;;;;;;5076420;28;8858;-79
2023/01/31 03:24:16;;;;;;;;;41.00;34.00;;;;;;;;5077369;28;8854;-79
2023/01/31 03:26:44;;;;;;;;;38.67;32.67;;;;;;;;5040815;28;8863;-79
2023/01/31 03:29:15;;;;;;;;;32.00;29.67;;;;;;;;5060742;28;8977;-79
2023/01/31 03:31:46;;;;;;;;;36.33;32.67;;;;;;;;5044763;28;10453;-78
2023/01/31 03:34:15;;;;;;;;;45.33;36.67;;;;;;;;5076797;28;8952;-79
2023/01/31 03:36:50;;;;;;;;;40.67;33.33;;;;;;;;5084686;28;9347;-78
2023/01/31 03:39:26;;;;;;;;;36.33;30.00;;;;;;;;5058335;28;9661;-78
2023/01/31 03:42:01;;;;;;;;;31.67;30.00;;;;;;;;5080343;28;8842;-79
2023/01/31 03:44:36;;;;;;;;;32.00;32.00;;;;;;;;5081997;28;8869;-79
2023/01/31 03:47:09;;;;;;;;;18.33;12.67;;;;;;;;5077786;28;8868;-77
2023/01/31 03:49:40;;;;;;;;;34.67;29.33;;;;;;;;5061208;28;8852;-79
2023/01/31 03:52:11;;;;;;;;;31.33;28.33;;;;;;;;5075867;28;8831;-79
2023/01/31 03:54:42;;;;;;;;;24.67;19.00;;;;;;;;5061347;28;9070;-79
2023/01/31 03:57:15;;;;;;;;;25.00;23.00;;;;;;;;5063539;28;8853;-79
2023/01/31 03:59:46;;;;;;;;;22.33;22.33;;;;;;;;5073618;28;8864;-79
2023/01/31 04:02:16;;;;;;;;;25.33;20.00;;;;;;;;5091556;27;8830;-78
2023/01/31 04:04:47;;;;;;;;;20.67;17.67;;;;;;;;5096750;28;8845;-78
2023/01/31 04:07:17;;;;;;;;;34.67;32.00;;;;;;;;5080847;28;8838;-78
2023/01/31 04:09:45;;;;;;;;;28.00;21.00;;;;;;;;5097292;28;8900;-79
2023/01/31 04:12:13;;;;;;;;;27.33;24.33;;;;;;;;5059430;28;8855;-79
2023/01/31 04:14:41;;;;;;;;;18.00;18.00;;;;;;;;5095446;28;8841;-79
2023/01/31 04:17:10;;;;;;;;;21.00;18.00;;;;;;;;5063464;28;8941;-79
2023/01/31 04:19:37;;;;;;;;;15.33;15.33;;;;;;;;5081172;28;8834;-80
2023/01/31 04:22:05;;;;;;;;;25.33;20.33;;;;;;;;5058116;28;8859;-79
2023/01/31 04:24:35;;;;;;;;;21.67;20.00;;;;;;;;5079325;28;9606;-78
2023/01/31 04:27:03;;;;;;;;;26.00;23.00;;;;;;;;5058512;28;8854;-79
2023/01/31 04:29:31;;;;;;;;;21.33;21.33;;;;;;;;5077635;28;8853;-80
2023/01/31 04:31:59;;;;;;;;;32.00;31.00;;;;;;;;5059784;28;8815;-79
2023/01/31 04:34:26;;;;;;;;;28.67;26.67;;;;;;;;5078509;28;8835;-79
2023/01/31 04:36:54;;;;;;;;;32.00;32.00;;;;;;;;5075171;28;8872;-79
2023/01/31 04:39:21;;;;;;;;;31.00;31.00;;;;;;;;5062565;28;8834;-79
2023/01/31 04:41:50;;;;;;;;;35.00;35.00;;;;;;;;5079166;28;8874;-79
2023/01/31 04:44:18;;;;;;;;;37.33;35.67;;;;;;;;5079845;28;8943;-79
2023/01/31 04:46:46;;;;;;;;;33.00;33.00;;;;;;;;5039884;28;8875;-78
2023/01/31 04:49:14;;;;;;;;;34.00;31.67;;;;;;;;5077440;28;8915;-79
2023/01/31 04:51:41;;;;;;;;;29.33;27.33;;;;;;;;5079807;28;8839;-79
2023/01/31 04:54:09;;;;;;;;;40.67;36.33;;;;;;;;5080174;28;9671;-78
2023/01/31 04:56:36;;;;;;;;;44.33;39.67;;;;;;;;5074161;28;8838;-79
2023/01/31 04:59:06;;;;;;;;;51.00;39.00;;;;;;;;5060063;28;8873;-78
2023/01/31 05:01:33;;;;;;;;;37.67;33.33;;;;;;;;5070010;28;8771;-80
2023/01/31 05:04:02;;;;;;;;;34.67;32.00;;;;;;;;5049127;28;8880;-79
2023/01/31 05:06:30;;;;;;;;;40.67;33.00;;;;;;;;5051575;28;8896;-79
2023/01/31 05:09:00;;;;;;;;;31.67;31.67;;;;;;;;5046213;28;8873;-79
2023/01/31 05:11:27;;;;;;;;;41.67;34.00;;;;;;;;5044559;28;8834;-79
2023/01/31 05:13:55;;;;;;;;;28.00;23.33;;;;;;;;5044143;28;9656;-78
2023/01/31 05:16:24;;;;;;;;;33.67;33.67;;;;;;;;5047143;28;8955;-79
2023/01/31 05:18:52;;;;;;;;;38.00;33.67;;;;;;;;5063647;28;8836;-78
2023/01/31 05:21:19;;;;;;;;;31.33;29.67;;;;;;;;5054504;28;8888;-79
2023/01/31 05:23:47;;;;;;;;;27.67;23.67;;;;;;;;5080305;28;8847;-79
2023/01/31 05:26:14;;;;;;;;;38.67;33.33;;;;;;;;5079908;28;9641;-79
2023/01/31 05:28:42;;;;;;;;;25.33;24.00;;;;;;;;5081722;28;8848;-78
2023/01/31 05:31:13;;;;;;;;;25.33;21.00;;;;;;;;5068953;27;8796;-73
2023/01/31 05:33:42;;;;;;;;;31.67;29.33;;;;;;;;5097843;28;8922;-73
2023/01/31 05:36:09;;;;;;;;;31.33;27.33;;;;;;;;5096603;28;8864;-72
2023/01/31 05:38:37;;;;;;;;;34.00;30.00;;;;;;;;5073368;28;8980;-73
2023/01/31 05:41:04;;;;;;;;;29.33;25.00;;;;;;;;5097723;28;8831;-73
2023/01/31 05:43:32;;;;;;;;;30.33;26.67;;;;;;;;5095778;28;8861;-72
2023/01/31 05:45:59;;;;;;;;;28.67;28.67;;;;;;;;5080902;27;8849;-71
2023/01/31 05:48:27;;;;;;;;;33.67;26.00;;;;;;;;5096670;28;8872;-72
2023/01/31 05:50:55;;;;;;;;;31.33;25.00;;;;;;;;5094325;28;8823;-72
2023/01/31 05:53:23;;;;;;;;;35.00;30.00;;;;;;;;5099201;28;8848;-72
2023/01/31 05:55:51;;;;;;;;;22.33;22.33;;;;;;;;5096300;28;8858;-73
2023/01/31 05:58:18;;;;;;;;;28.67;19.00;;;;;;;;5092251;28;8956;-74
2023/01/31 06:00:46;;;;;;;;;26.33;19.67;;;;;;;;5087449;28;8804;-73
2023/01/31 06:03:13;;;;;;;;;28.67;24.67;;;;;;;;5073391;28;11482;-73
2023/01/31 06:05:40;;;;;;;;;24.67;19.67;;;;;;;;5077748;28;8808;-74
2023/01/31 06:08:10;;;;;;;;;24.67;22.67;;;;;;;;5077089;28;8876;-73
2023/01/31 06:10:37;;;;;;;;;22.67;21.67;;;;;;;;5060201;28;12033;-73
2023/01/31 06:13:06;;;;;;;;;25.33;25.00;;;;;;;;5074917;28;11474;-73
2023/01/31 06:15:33;;;;;;;;;29.33;23.33;;;;;;;;5074294;28;8919;-73
2023/01/31 06:18:01;;;;;;;;;32.00;28.67;;;;;;;;5078543;28;9069;-74
2023/01/31 06:20:29;;;;;;;;;26.67;22.67;;;;;;;;5040972;28;8830;-74
2023/01/31 06:22:56;;;;;;;;;28.33;26.33;;;;;;;;5063405;28;8939;-72
2023/01/31 06:25:25;;;;;;;;;26.67;21.00;;;;;;;;5074395;28;8855;-73
2023/01/31 06:27:52;;;;;;;;;23.33;22.00;;;;;;;;5078113;28;11547;-72
2023/01/31 06:30:20;;;;;;;;;30.67;21.33;;;;;;;;5060232;28;11919;-73
2023/01/31 06:32:48;;;;;;;;;24.33;23.00;;;;;;;;5077887;28;12476;-73
2023/01/31 06:35:16;;;;;;;;;27.00;22.67;;;;;;;;5075986;28;11511;-73
2023/01/31 06:37:43;;;;;;;;;21.50;19.50;;;;;;;;5078291;28;11622;-73
2023/01/31 06:40:12;;;;;;;;;16.50;16.00;;;;;;;;5081155;28;11563;-73
2023/01/31 06:42:41;;;;;;;;;26.25;21.25;;;;;;;;5079268;28;11530;-73
2023/01/31 06:45:09;;;;;;;;;18.50;18.50;;;;;;;;5047102;28;11864;-73
2023/01/31 06:47:36;;;;;;;;;25.00;20.50;;;;;;;;5080837;28;11526;-73
2023/01/31 06:50:04;;;;;;;;;21.00;16.25;;;;;;;;5076281;28;11518;-72
2023/01/31 06:52:32;;;;;;;;;22.50;21.25;;;;;;;;5079603;28;11530;-74
2023/01/31 06:55:00;;;;;;;;;20.25;16.00;;;;;;;;5045805;28;11525;-75
2023/01/31 06:57:27;;;;;;;;;29.50;28.75;;;;;;;;5048008;28;11567;-73
2023/01/31 06:59:56;;;;;;;;;17.50;17.50;;;;;;;;5078515;28;11562;-72
2023/01/31 07:02:23;;;;;;;;;21.50;18.75;;;;;;;;5060003;28;11486;-71
2023/01/31 07:04:52;;;;;;;;;20.50;18.25;;;;;;;;5077951;28;11500;-72
2023/01/31 07:07:19;;;;;;;;;18.75;15.25;;;;;;;;5080395;28;11540;-71
2023/01/31 07:09:47;;;;;;;;;23.50;20.25;;;;;;;;5077745;28;11528;-70
2023/01/31 07:12:14;;;;;;;;;23.25;22.50;;;;;;;;5077985;28;11515;-70
2023/01/31 07:14:42;;;;;;;;;27.25;19.25;;;;;;;;5077696;28;11535;-70
2023/01/31 07:17:10;;;;;;;;;14.00;14.00;;;;;;;;5079703;28;11586;-71
2023/01/31 07:19:38;;;;;;;;;17.25;17.25;;;;;;;;5081934;28;11529;-70
2023/01/31 07:22:05;;;;;;;;;29.00;21.50;;;;;;;;5061063;28;11449;-71
2023/01/31 07:24:33;;;;;;;;;21.00;18.25;;;;;;;;5077062;28;11483;-71
2023/01/31 07:27:00;;;;;;;;;23.75;22.00;;;;;;;;5077327;28;11456;-70
2023/01/31 07:29:28;;;;;;;;;23.50;22.00;;;;;;;;5078950;28;11553;-70
2023/01/31 07:31:56;;;;;;;;;24.75;21.50;;;;;;;;5077981;28;11552;-70
2023/01/31 07:34:25;;;;;;;;;17.25;17.25;;;;;;;;5083399;28;11633;-70
2023/01/31 07:36:52;;;;;;;;;20.75;20.75;;;;;;;;5082237;28;11530;-70
2023/01/31 07:39:20;;;;;;;;;18.25;18.25;;;;;;;;5084002;28;11635;-70
2023/01/31 07:41:47;;;;;;;;;22.00;20.25;;;;;;;;5081454;28;12362;-70
2023/01/31 07:44:15;;;;;;;;;21.00;21.00;;;;;;;;5081352;28;12336;-71
2023/01/31 07:46:42;;;;;;;;;22.00;20.50;;;;;;;;5060905;28;11603;-70
2023/01/31 07:49:11;;;;;;;;;25.50;23.50;;;;;;;;5084360;28;11681;-71
2023/01/31 07:51:40;;;;;;;;;25.00;24.00;;;;;;;;5080912;28;11530;-70
2023/01/31 07:54:07;;;;;;;;;26.00;23.25;;;;;;;;5082478;28;11487;-70
2023/01/31 07:56:34;;;;;;;;;30.00;24.75;;;;;;;;5081860;28;11477;-71
2023/01/31 07:59:02;;;;;;;;;22.75;22.75;;;;;;;;5081901;28;11510;-71
2023/01/31 08:04:16;;;;;;;;;23.50;18.75;;;;;;;;5097910;28;11470;-71
2023/01/31 08:06:47;;;;;;;;;19.00;17.25;;;;;;;;5098734;28;11464;-71
2023/01/31 08:09:14;;;;;;;;;20.75;18.75;;;;;;;;5095303;28;11472;-71
2023/01/31 08:11:42;;;;;;;;;22.75;21.25;;;;;;;;5097353;28;11626;-73
2023/01/31 08:14:09;;;;;;;;;26.25;23.75;;;;;;;;5095190;28;11446;-70
2023/01/31 08:16:37;;;;;;;;;20.25;14.75;;;;;;;;5096208;27;11447;-72
2023/01/31 08:19:05;;;;;;;;;11.25;9.50;;;;;;;;5095730;28;11429;-72
2023/01/31 08:21:32;;;;;;;;;25.25;20.25;;;;;;;;5096871;28;12266;-72
2023/01/31 08:24:01;;;;;;;;;22.25;19.25;;;;;;;;5098881;27;12810;-70
2023/01/31 08:26:28;;;;;;;;;22.00;21.25;;;;;;;;5097285;27;11510;-72
2023/01/31 08:28:56;;;;;;;;;27.50;22.75;;;;;;;;5098924;27;11518;-72
2023/01/31 08:31:25;;;;;;;;;22.25;21.00;;;;;;;;5099500;27;11444;-72
2023/01/31 08:33:53;;;;;;;;;22.75;22.50;;;;;;;;5096010;27;11526;-71
2023/01/31 08:36:22;;;;;;;;;26.50;24.75;;;;;;;;5099108;28;11543;-71
2023/01/31 08:38:50;;;;;;;;;26.50;23.50;;;;;;;;5064067;28;11636;-71
2023/01/31 08:41:21;;;;;;;;;21.75;19.00;;;;;;;;5099246;27;11536;-71
2023/01/31 08:43:48;;;;;;;;;16.75;16.75;;;;;;;;5103393;27;11594;-72
2023/01/31 08:46:16;;;;;;;;;20.00;20.00;;;;;;;;5099141;27;11521;-70
2023/01/31 08:48:43;;;;;;;;;18.75;15.25;;;;;;;;5099284;27;11510;-70
2023/01/31 08:51:12;;;;;;;;;25.75;25.50;;;;;;;;5098268;27;11525;-70
2023/01/31 08:53:42;;;;;;;;;24.25;21.75;;;;;;;;5076305;28;11522;-71
2023/01/31 08:56:10;;;;;;;;;20.50;19.25;;;;;;;;5094856;28;12287;-70
2023/01/31 08:58:41;;;;;;;;;24.75;22.00;;;;;;;;5098022;28;11503;-70
2023/01/31 09:01:11;;;;;;;;;25.50;20.75;;;;;;;;5076423;28;11542;-70
2023/01/31 09:03:39;;;;;;;;;22.25;20.25;;;;;;;;5077889;28;11491;-73
2023/01/31 09:06:09;;;;;;;;;22.00;19.75;;;;;;;;5077272;28;11501;-71
2023/01/31 09:08:36;;;;;;;;;27.00;22.00;;;;;;;;5076041;28;11507;-70
2023/01/31 09:11:03;;;;;;;;;22.50;20.00;;;;;;;;5076166;28;11533;-71
2023/01/31 09:13:31;;;;;;;;;22.25;19.25;;;;;;;;5077355;28;11463;-70
2023/01/31 09:16:01;;;;;;;;;23.50;20.50;;;;;;;;5075250;28;12169;-70
2023/01/31 09:18:28;;;;;;;;;22.50;22.50;;;;;;;;5076470;28;11498;-70
2023/01/31 09:20:56;;;;;;;;;23.00;18.75;;;;;;;;5075037;28;11611;-71
2023/01/31 09:23:23;;;;;;;;;21.50;21.00;;;;;;;;5075032;28;11520;-71
2023/01/31 09:25:54;;;;;;;;;22.50;22.25;;;;;;;;5079810;28;11542;-71
2023/01/31 09:28:22;;;;;;;;;24.50;20.25;;;;;;;;5075896;28;11544;-72
2023/01/31 09:30:52;;;;;;;;;23.75;22.00;;;;;;;;5082644;27;11449;-72
2023/01/31 09:33:21;;;;;;;;;14.25;14.25;;;;;;;;5100688;27;11523;-71
2023/01/31 09:35:57;;;;;;;;;17.00;17.00;;;;;;;;5085013;28;11516;-71
2023/01/31 09:38:24;;;;;;;;;22.00;19.00;;;;;;;;5098061;28;11477;-72
2023/01/31 09:40:52;;;;;;;;;22.50;20.25;;;;;;;;5104290;27;11529;-71
2023/01/31 09:43:21;;;;;;;;;32.50;25.00;;;;;;;;5095784;27;11525;-72
2023/01/31 09:45:49;;;;;;;;;23.75;20.25;;;;;;;;5063119;28;11537;-71
2023/01/31 09:48:20;;;;;;;;;20.25;19.75;;;;;;;;5074296;28;11501;-71
2023/01/31 09:50:54;;;;;;;;;19.00;18.50;;;;;;;;5098314;27;11495;-71
2023/01/31 09:53:23;;;;;;;;;20.50;16.75;;;;;;;;5097641;27;11512;-71
2023/01/31 09:55:57;;;;;;;;;19.25;17.00;;;;;;;;5097306;28;11513;-72
2023/01/31 09:58:29;;;;;;;;;19.50;16.00;;;;;;;;5094485;28;11587;-72
2023/01/31 10:01:06;;;;;;;;;19.00;18.75;;;;;;;;5077769;28;11448;-72
2023/01/31 10:03:58;;;;;;;;;26.25;20.25;;;;;;;;5093909;28;11527;-71
2023/01/31 10:06:30;;;;;;;;;22.75;21.00;;;;;;;;5094426;28;11595;-71
2023/01/31 10:09:02;;;;;;;;;21.00;14.75;;;;;;;;5080474;28;11514;-71
2023/01/31 10:11:34;;;;;;;;;17.00;15.00;;;;;;;;5106414;27;12376;-72
2023/01/31 10:14:05;;;;;;;;;13.25;10.00;;;;;;;;5098107;27;11541;-71
2023/01/31 10:16:37;;;;;;;;;16.25;14.50;;;;;;;;5099797;27;11498;-71
2023/01/31 10:19:08;;;;;;;;;19.25;15.25;;;;;;;;5100442;27;11502;-71
2023/01/31 10:21:40;;;;;;;;;16.75;16.00;;;;;;;;5108094;27;11508;-71
2023/01/31 10:24:13;;;;;;;;;22.75;20.25;;;;;;;;5102093;27;11534;-71
2023/01/31 10:26:44;;;;;;;;;19.75;17.75;;;;;;;;5081935;28;11509;-71
2023/01/31 10:29:16;;;;;;;;;20.00;17.50;;;;;;;;5100939;27;12277;-71
2023/01/31 10:31:46;;;;;;;;;21.00;16.75;;;;;;;;5097906;27;11501;-72
2023/01/31 10:34:18;;;;;;;;;25.00;21.25;;;;;;;;5100554;27;11501;-71
2023/01/31 10:36:50;;;;;;;;;21.00;16.00;;;;;;;;5096736;28;11561;-71
2023/01/31 10:39:22;;;;;;;;;19.00;16.25;;;;;;;;5097515;28;11495;-72
2023/01/31 10:42:09;;;;;;;;;16.00;13.25;;;;;;;;5102676;27;11506;-72
2023/01/31 10:44:45;;;;;;;;;13.50;13.50;;;;;;;;5096767;27;11547;-71
2023/01/31 10:47:15;;;;;;;;;16.75;15.00;;;;;;;;5100214;28;11534;-72
2023/01/31 10:49:46;;;;;;;;;12.25;12.25;;;;;;;;5097796;28;11509;-72
2023/01/31 10:52:42;;;;;;;;;13.25;10.25;;;;;;;;5102727;28;11509;-72
2023/01/31 10:55:25;;;;;;;;;11.75;11.00;;;;;;;;5102764;27;11494;-71
2023/01/31 10:57:54;;;;;;;;;13.25;12.00;;;;;;;;5097215;27;11510;-71
2023/01/31 11:00:24;;;;;;;;;13.00;11.50;;;;;;;;5100775;27;11506;-71
2023/01/31 11:02:52;;;;;;;;;13.25;8.00;;;;;;;;5100488;27;11473;-71
2023/01/31 11:05:23;;;;;;;;;12.25;9.00;;;;;;;;5104014;27;11494;-70
2023/01/31 11:07:51;;;;;;;;;10.75;10.75;;;;;;;;5100300;27;11453;-71
2023/01/31 11:10:23;;;;;;;;;6.75;6.75;;;;;;;;5100030;28;12371;-72
2023/01/31 11:12:55;;;;;;;;;9.25;6.00;;;;;;;;5105834;27;11423;-72
2023/01/31 11:15:25;;;;;;;;;8.00;8.00;;;;;;;;5100588;28;11399;-71
2023/01/31 11:17:54;;;;;;;;;7.25;5.75;;;;;;;;5104783;27;11439;-71
2023/01/31 11:20:29;;;;;;;;;6.25;6.25;;;;;;;;5079014;28;11473;-72
2023/01/31 11:22:58;;;;;;;;;12.25;11.00;;;;;;;;5095146;28;11546;-72
2023/01/31 11:25:27;;;;;;;;;10.00;8.75;;;;;;;;5098638;27;11625;-72
2023/01/31 11:27:57;;;;;;;;;9.25;9.25;;;;;;;;5082065;28;11551;-72
2023/01/31 11:30:28;;;;;;;;;7.50;7.50;;;;;;;;5080968;28;11362;-71
2023/01/31 11:32:55;;;;;;;;;8.00;7.00;;;;;;;;5096789;27;11420;-71
2023/01/31 11:35:27;;;;;;;;;8.25;8.25;;;;;;;;5084181;28;11416;-73
2023/01/31 11:37:56;;;;;;;;;11.50;9.00;;;;;;;;5100118;27;11475;-72
2023/01/31 11:40:29;;;;;;;;;8.00;7.75;;;;;;;;5082539;28;11418;-71
2023/01/31 11:42:58;;;;;;;;;10.75;10.75;;;;;;;;5101474;27;11397;-70
2023/01/31 11:45:28;;;;;;;;;12.25;8.25;;;;;;;;5097937;28;11522;-73
2023/01/31 11:47:57;;;;;;;;;8.25;7.50;;;;;;;;5101497;27;11495;-71
2023/01/31 11:50:32;;;;;;;;;11.00;11.00;;;;;;;;5100901;28;11428;-72
2023/01/31 11:53:02;;;;;;;;;11.25;10.50;;;;;;;;5101541;27;12286;-73
2023/01/31 11:55:38;;;;;;;;;10.50;8.00;;;;;;;;5100369;27;12183;-72
2023/01/31 11:58:15;;;;;;;;;7.50;7.50;;;;;;;;5099741;27;11391;-71
2023/01/31 12:00:52;;;;;;;;;11.00;11.00;;;;;;;;5099469;27;11366;-72
2023/01/31 12:03:19;;;;;;;;;12.75;9.25;;;;;;;;5102963;27;11523;-74
2023/01/31 12:05:59;;;;;;;;;12.00;8.75;;;;;;;;5096275;28;11479;-71
2023/01/31 12:08:29;;;;;;;;;12.00;11.00;;;;;;;;5102143;27;11427;-70
2023/01/31 12:10:57;;;;;;;;;9.00;9.00;;;;;;;;5101359;27;11446;-71
2023/01/31 12:13:27;;;;;;;;;16.00;12.25;;;;;;;;5099456;27;11385;-69
2023/01/31 12:15:59;;;;;;;;;10.00;10.00;;;;;;;;5096664;27;11416;-71
2023/01/31 12:18:54;;;;;;;;;10.50;10.50;;;;;;;;5100527;27;11465;-73
2023/01/31 12:21:39;;;;;;;;;8.50;8.50;;;;;;;;5100584;27;11414;-72
2023/01/31 12:24:16;;;;;;;;;11.00;11.00;;;;;;;;5097152;27;11370;-72
2023/01/31 12:26:47;;;;;;;;;12.75;9.00;;;;;;;;5099358;28;11538;-74
2023/01/31 12:29:26;;;;;;;;;13.00;11.50;;;;;;;;5098917;27;12220;-72
2023/01/31 12:32:15;;;;;;;;;8.50;7.75;;;;;;;;5106528;27;11432;-72
2023/01/31 12:34:59;;;;;;;;;9.00;8.00;;;;;;;;5099471;27;11429;-73
2023/01/31 12:37:41;;;;;;;;;11.75;8.50;;;;;;;;5071596;27;11432;-72
2023/01/31 12:40:33;;;;;;;;;8.25;8.00;;;;;;;;5098199;27;11534;-72
2023/01/31 12:43:03;;;;;;;;;6.25;5.00;;;;;;;;5101698;27;11370;-72
2023/01/31 12:45:43;;;;;;;;;11.50;9.50;;;;;;;;5084885;27;11437;-72
2023/01/31 12:48:33;;;;;;;;;8.00;8.00;;;;;;;;5103535;27;11397;-71
2023/01/31 12:51:08;;;;;;;;;12.00;10.00;;;;;;;;5101541;27;11102;-72
2023/01/31 12:53:59;;;;;;;;;12.75;8.25;;;;;;;;5100157;27;11093;-71
2023/01/31 12:56:44;;;;;;;;;8.50;7.50;;;;;;;;5084380;27;10954;-71
2023/01/31 12:59:25;;;;;;;;;8.75;7.75;;;;;;;;5097607;27;11037;-72
2023/01/31 13:01:57;;;;;;;;;4.75;4.75;;;;;;;;5080175;28;10778;-72
2023/01/31 13:04:34;;;;;;;;;7.25;7.25;;;;;;;;5067210;28;10882;-72
2023/01/31 13:07:04;;;;;;;;;8.25;6.50;;;;;;;;5097099;28;10960;-72
2023/01/31 13:09:34;;;;;;;;;5.75;5.75;;;;;;;;5100176;28;10984;-72
2023/01/31 13:12:05;;;;;;;;;4.00;4.00;;;;;;;;5106002;27;10878;-73
2023/01/31 13:14:37;;;;;;;;;7.25;5.25;;;;;;;;5102091;28;10887;-72
2023/01/31 13:17:06;;;;;;;;;6.50;6.50;;;;;;;;5101427;28;10958;-73
2023/01/31 13:19:38;;;;;;;;;8.50;7.00;;;;;;;;5081663;28;10785;-72
2023/01/31 13:22:11;;;;;;;;;4.50;4.50;;;;;;;;5084478;28;10920;-72
2023/01/31 13:24:42;;;;;;;;;8.75;5.25;;;;;;;;5096921;28;10817;-71
2023/01/31 13:27:15;;;;;;;;;6.00;6.00;;;;;;;;5098628;27;11578;-71
2023/01/31 13:29:45;;;;;;;;;4.00;4.00;;;;;;;;5103195;27;10703;-70
2023/01/31 13:32:19;;;;;;;;;5.75;5.75;;;;;;;;5081552;28;10741;-71
2023/01/31 13:34:51;;;;;;;;;6.00;6.00;;;;;;;;5082804;28;10783;-71
2023/01/31 13:37:20;;;;;;;;;7.00;7.00;;;;;;;;5089666;28;11373;-70
2023/01/31 13:39:52;;;;;;;;;4.00;4.00;;;;;;;;5061804;28;10595;-71
2023/01/31 13:42:20;;;;;;;;;5.50;3.25;;;;;;;;5081473;28;10453;-70
2023/01/31 13:44:48;;;;;;;;;6.25;5.25;;;;;;;;5087083;28;10375;-71
2023/01/31 13:47:21;;;;;;;;;7.00;4.50;;;;;;;;5087238;28;10192;-70
2023/01/31 13:49:50;;;;;;;;;4.50;4.50;;;;;;;;5089369;28;10230;-71
2023/01/31 13:52:21;;;;;;;;;5.00;5.00;;;;;;;;5088546;28;10213;-71
2023/01/31 13:54:53;;;;;;;;;6.50;3.00;;;;;;;;5089923;28;9923;-70
2023/01/31 13:57:26;;;;;;;;;5.00;5.00;;;;;;;;5070751;28;9870;-71
2023/01/31 13:59:55;;;;;;;;;4.00;4.00;;;;;;;;5069978;28;9951;-71
2023/01/31 14:02:26;;;;;;;;;6.50;5.00;;;;;;;;5065197;28;9893;-72
2023/01/31 14:04:53;;;;;;;;;4.00;4.00;;;;;;;;5082571;28;10173;-72
2023/01/31 14:07:22;;;;;;;;;3.00;3.00;;;;;;;;5069683;28;10197;-70
2023/01/31 14:10:26;;;;;;;;;7.50;4.00;;;;;;;;5082017;28;10154;-72
2023/01/31 14:13:38;;;;;;;;;3.00;3.00;;;;;;;;5084440;28;10222;-72
2023/01/31 14:16:38;;;;;;;;;5.00;4.00;;;;;;;;5086763;28;10150;-72
2023/01/31 14:19:22;;;;;;;;;4.00;4.00;;;;;;;;5083487;28;10241;-72
2023/01/31 14:21:57;;;;;;;;;4.00;4.00;;;;;;;;5083209;28;10316;-72
2023/01/31 14:25:04;;;;;;;;;3.75;3.50;;;;;;;;5082916;28;10258;-72
2023/01/31 14:28:02;;;;;;;;;5.25;4.00;;;;;;;;5085991;28;10215;-71
2023/01/31 14:30:41;;;;;;;;;7.00;3.00;;;;;;;;5081296;28;10369;-71
2023/01/31 14:33:25;;;;;;;;;3.75;3.75;;;;;;;;5081642;28;10873;-72
2023/01/31 14:36:33;;;;;;;;;3.00;3.00;;;;;;;;5083711;28;10409;-71
2023/01/31 14:39:30;;;;;;;;;7.50;4.25;;;;;;;;5069427;28;10594;-71
2023/01/31 14:42:35;;;;;;;;;3.75;3.75;;;;;;;;5081552;28;10533;-72
2023/01/31 14:45:27;;;;;;;;;5.75;4.25;;;;;;;;5082648;28;10433;-72
2023/01/31 14:48:23;;;;;;;;;3.75;3.00;;;;;;;;5063621;28;10471;-72
2023/01/31 14:51:09;;;;;;;;;3.25;3.25;;;;;;;;5084798;28;10473;-71
2023/01/31 14:53:56;;;;;;;;;4.00;4.00;;;;;;;;5080978;28;10516;-71
2023/01/31 14:56:43;;;;;;;;;5.00;3.75;;;;;;;;5081540;28;10443;-72
2023/01/31 14:59:25;;;;;;;;;2.00;2.00;;;;;;;;5086802;28;10549;-71
2023/01/31 15:01:55;;;;;;;;;7.50;4.00;;;;;;;;5098181;27;10619;-71
2023/01/31 15:04:25;;;;;;;;;4.00;4.00;;;;;;;;5102330;27;10533;-71